sensor_id;sensor_type;location;lat;lon;timestamp;P1;durP1;ratioP1;P2;durP2;ratioP2
70761;SDS011;58360;0.000;0.000;2023-01-30T00:01:25;44.47;;;28.13;;
70761;SDS011;58360;0.000;0.000;2023-01-30T00:03:53;55.15;;;29.95;;
70761;SDS011;58360;0.000;0.000;2023-01-30T00:06:18;47.17;;;28.13;;
70761;SDS011;58360;0.000;0.000;2023-01-30T00:08:45;49.45;;;28.50;;
70761;SDS011;58360;0.000;0.000;2023-01-30T00:11:11;52.92;;;27.75;;
70761;SDS011;58360;0.000;0.000;2023-01-30T00:13:38;57.60;;;29.13;;
70761;SDS011;58360;0.000;0.000;2023-01-30T00:16:05;55.15;;;29.15;;
70761;SDS011;58360;0.000;0.000;2023-01-30T00:18:31;51.67;;;29.25;;
70761;SDS011;58360;0.000;0.000;2023-01-30T00:20:57;50.63;;;28.27;;
70761;SDS011;58360;0.000;0.000;2023-01-30T00:23:25;55.28;;;27.27;;
70761;SDS011;58360;0.000;0.000;2023-01-30T00:25:52;56.58;;;26.27;;
70761;SDS011;58360;0.000;0.000;2023-01-30T00:28:18;45.78;;;27.55;;
70761;SDS011;58360;0.000;0.000;2023-01-30T00:30:43;49.85;;;28.10;;
70761;SDS011;58360;0.000;0.000;2023-01-30T00:33:12;52.60;;;27.05;;
70761;SDS011;58360;0.000;0.000;2023-01-30T00:35:42;47.75;;;27.13;;
70761;SDS011;58360;0.000;0.000;2023-01-30T00:38:08;62.17;;;27.98;;
70761;SDS011;58360;0.000;0.000;2023-01-30T00:40:34;55.60;;;27.52;;
70761;SDS011;58360;0.000;0.000;2023-01-30T00:43:00;58.33;;;29.33;;
70761;SDS011;58360;0.000;0.000;2023-01-30T00:45:44;49.83;;;27.40;;
70761;SDS011;58360;0.000;0.000;2023-01-30T00:48:28;56.28;;;28.45;;
70761;SDS011;58360;0.000;0.000;2023-01-30T00:50:55;60.08;;;30.25;;
70761;SDS011;58360;0.000;0.000;2023-01-30T00:53:20;49.97;;;27.83;;
70761;SDS011;58360;0.000;0.000;2023-01-30T00:55:46;52.53;;;27.83;;
70761;SDS011;58360;0.000;0.000;2023-01-30T00:58:12;59.25;;;30.70;;
70761;SDS011;58360;0.000;0.000;2023-01-30T01:00:38;64.38;;;32.47;;
70761;SDS011;58360;0.000;0.000;2023-01-30T01:03:04;59.13;;;31.92;;
70761;SDS011;58360;0.000;0.000;2023-01-30T01:05:29;57.53;;;30.75;;
70761;SDS011;58360;0.000;0.000;2023-01-30T01:07:55;57.50;;;30.45;;
70761;SDS011;58360;0.000;0.000;2023-01-30T01:10:21;51.15;;;28.23;;
70761;SDS011;58360;0.000;0.000;2023-01-30T01:12:50;58.35;;;26.70;;
70761;SDS011;58360;0.000;0.000;2023-01-30T01:15:16;51.17;;;28.08;;
70761;SDS011;58360;0.000;0.000;2023-01-30T01:17:43;49.72;;;25.05;;
70761;SDS011;58360;0.000;0.000;2023-01-30T01:20:09;45.08;;;24.65;;
70761;SDS011;58360;0.000;0.000;2023-01-30T01:22:35;48.72;;;25.27;;
70761;SDS011;58360;0.000;0.000;2023-01-30T01:25:01;45.55;;;24.98;;
70761;SDS011;58360;0.000;0.000;2023-01-30T01:27:27;47.05;;;27.02;;
70761;SDS011;58360;0.000;0.000;2023-01-30T01:29:53;49.92;;;25.33;;
70761;SDS011;58360;0.000;0.000;2023-01-30T01:32:19;41.78;;;24.00;;
70761;SDS011;58360;0.000;0.000;2023-01-30T01:34:46;42.63;;;24.17;;
70761;SDS011;58360;0.000;0.000;2023-01-30T01:37:11;43.65;;;24.10;;
70761;SDS011;58360;0.000;0.000;2023-01-30T01:39:37;44.63;;;24.83;;
70761;SDS011;58360;0.000;0.000;2023-01-30T01:42:23;50.50;;;24.20;;
70761;SDS011;58360;0.000;0.000;2023-01-30T01:47:38;41.90;;;23.67;;
70761;SDS011;58360;0.000;0.000;2023-01-30T01:53:15;36.95;;;21.40;;
70761;SDS011;58360;0.000;0.000;2023-01-30T01:55:43;43.65;;;21.80;;
70761;SDS011;58360;0.000;0.000;2023-01-30T01:58:14;43.47;;;22.30;;
70761;SDS011;58360;0.000;0.000;2023-01-30T02:00:50;41.70;;;20.90;;
70761;SDS011;58360;0.000;0.000;2023-01-30T02:03:18;44.08;;;21.77;;
70761;SDS011;58360;0.000;0.000;2023-01-30T02:05:48;38.83;;;20.63;;
70761;SDS011;58360;0.000;0.000;2023-01-30T02:08:18;40.53;;;21.48;;
70761;SDS011;58360;0.000;0.000;2023-01-30T02:11:09;41.15;;;20.35;;
70761;SDS011;58360;0.000;0.000;2023-01-30T02:13:41;35.40;;;19.08;;
70761;SDS011;58360;0.000;0.000;2023-01-30T02:16:11;43.20;;;21.02;;
70761;SDS011;58360;0.000;0.000;2023-01-30T02:18:38;38.90;;;20.02;;
70761;SDS011;58360;0.000;0.000;2023-01-30T02:32:08;45.17;;;21.42;;
70761;SDS011;58360;0.000;0.000;2023-01-30T02:34:48;40.67;;;21.98;;
70761;SDS011;58360;0.000;0.000;2023-01-30T02:43:12;38.90;;;21.75;;
70761;SDS011;58360;0.000;0.000;2023-01-30T02:48:27;40.10;;;21.98;;
70761;SDS011;58360;0.000;0.000;2023-01-30T02:51:02;43.95;;;19.80;;
70761;SDS011;58360;0.000;0.000;2023-01-30T02:53:46;33.47;;;19.27;;
70761;SDS011;58360;0.000;0.000;2023-01-30T02:56:14;33.45;;;18.92;;
70761;SDS011;58360;0.000;0.000;2023-01-30T02:58:41;39.83;;;18.73;;
70761;SDS011;58360;0.000;0.000;2023-01-30T03:14:51;29.13;;;15.13;;
70761;SDS011;58360;0.000;0.000;2023-01-30T03:17:45;24.83;;;15.02;;
70761;SDS011;58360;0.000;0.000;2023-01-30T03:20:12;24.67;;;14.98;;
70761;SDS011;58360;0.000;0.000;2023-01-30T03:22:39;30.95;;;13.50;;
70761;SDS011;58360;0.000;0.000;2023-01-30T03:25:04;27.98;;;14.60;;
70761;SDS011;58360;0.000;0.000;2023-01-30T03:27:31;27.83;;;15.30;;
70761;SDS011;58360;0.000;0.000;2023-01-30T03:29:59;33.90;;;13.63;;
70761;SDS011;58360;0.000;0.000;2023-01-30T03:32:24;24.10;;;14.65;;
70761;SDS011;58360;0.000;0.000;2023-01-30T03:34:50;27.15;;;14.13;;
70761;SDS011;58360;0.000;0.000;2023-01-30T03:37:16;25.42;;;14.63;;
70761;SDS011;58360;0.000;0.000;2023-01-30T03:39:41;27.52;;;14.82;;
70761;SDS011;58360;0.000;0.000;2023-01-30T03:42:07;31.25;;;15.73;;
70761;SDS011;58360;0.000;0.000;2023-01-30T03:44:33;26.63;;;14.70;;
70761;SDS011;58360;0.000;0.000;2023-01-30T03:46:59;35.80;;;15.60;;
70761;SDS011;58360;0.000;0.000;2023-01-30T03:49:24;32.10;;;15.30;;
70761;SDS011;58360;0.000;0.000;2023-01-30T03:51:50;32.28;;;14.60;;
70761;SDS011;58360;0.000;0.000;2023-01-30T03:54:16;36.85;;;15.43;;
70761;SDS011;58360;0.000;0.000;2023-01-30T03:56:41;36.80;;;14.48;;
70761;SDS011;58360;0.000;0.000;2023-01-30T03:59:07;34.45;;;14.95;;
70761;SDS011;58360;0.000;0.000;2023-01-30T04:01:33;25.58;;;15.13;;
70761;SDS011;58360;0.000;0.000;2023-01-30T04:03:58;29.27;;;14.70;;
70761;SDS011;58360;0.000;0.000;2023-01-30T04:06:24;27.98;;;14.57;;
70761;SDS011;58360;0.000;0.000;2023-01-30T04:08:53;25.75;;;13.85;;
70761;SDS011;58360;0.000;0.000;2023-01-30T04:11:19;29.70;;;13.85;;
70761;SDS011;58360;0.000;0.000;2023-01-30T04:13:45;30.15;;;14.63;;
70761;SDS011;58360;0.000;0.000;2023-01-30T04:16:14;27.17;;;13.50;;
70761;SDS011;58360;0.000;0.000;2023-01-30T04:18:42;25.23;;;13.32;;
70761;SDS011;58360;0.000;0.000;2023-01-30T04:21:08;23.02;;;13.02;;
70761;SDS011;58360;0.000;0.000;2023-01-30T04:23:34;28.73;;;13.32;;
70761;SDS011;58360;0.000;0.000;2023-01-30T04:25:59;26.98;;;13.15;;
70761;SDS011;58360;0.000;0.000;2023-01-30T04:28:25;32.25;;;14.32;;
70761;SDS011;58360;0.000;0.000;2023-01-30T04:30:51;28.67;;;15.00;;
70761;SDS011;58360;0.000;0.000;2023-01-30T04:33:17;28.80;;;14.82;;
70761;SDS011;58360;0.000;0.000;2023-01-30T04:35:52;28.67;;;13.88;;
70761;SDS011;58360;0.000;0.000;2023-01-30T04:38:19;25.17;;;13.63;;
70761;SDS011;58360;0.000;0.000;2023-01-30T04:40:47;28.67;;;14.23;;
70761;SDS011;58360;0.000;0.000;2023-01-30T04:43:13;29.33;;;12.48;;
70761;SDS011;58360;0.000;0.000;2023-01-30T04:45:43;28.20;;;13.50;;
70761;SDS011;58360;0.000;0.000;2023-01-30T04:48:09;27.95;;;13.02;;
70761;SDS011;58360;0.000;0.000;2023-01-30T04:50:35;26.15;;;12.73;;
70761;SDS011;58360;0.000;0.000;2023-01-30T04:53:01;25.10;;;12.25;;
70761;SDS011;58360;0.000;0.000;2023-01-30T04:55:27;25.70;;;12.85;;
70761;SDS011;58360;0.000;0.000;2023-01-30T04:57:52;24.75;;;13.65;;
70761;SDS011;58360;0.000;0.000;2023-01-30T05:00:18;24.25;;;13.45;;
70761;SDS011;58360;0.000;0.000;2023-01-30T05:02:44;22.50;;;13.32;;
70761;SDS011;58360;0.000;0.000;2023-01-30T05:05:09;22.20;;;12.70;;
70761;SDS011;58360;0.000;0.000;2023-01-30T05:07:35;29.48;;;13.10;;
70761;SDS011;58360;0.000;0.000;2023-01-30T05:10:01;27.00;;;12.43;;
70761;SDS011;58360;0.000;0.000;2023-01-30T05:12:27;25.98;;;12.52;;
70761;SDS011;58360;0.000;0.000;2023-01-30T05:14:53;19.15;;;12.13;;
70761;SDS011;58360;0.000;0.000;2023-01-30T05:17:18;27.50;;;11.68;;
70761;SDS011;58360;0.000;0.000;2023-01-30T05:19:44;29.55;;;12.18;;
70761;SDS011;58360;0.000;0.000;2023-01-30T05:22:10;27.33;;;12.98;;
70761;SDS011;58360;0.000;0.000;2023-01-30T05:24:36;27.23;;;12.32;;
70761;SDS011;58360;0.000;0.000;2023-01-30T05:27:02;24.17;;;12.18;;
70761;SDS011;58360;0.000;0.000;2023-01-30T05:29:28;21.63;;;12.57;;
70761;SDS011;58360;0.000;0.000;2023-01-30T05:31:53;28.42;;;12.20;;
70761;SDS011;58360;0.000;0.000;2023-01-30T05:34:19;21.73;;;11.68;;
70761;SDS011;58360;0.000;0.000;2023-01-30T05:36:45;28.13;;;12.07;;
70761;SDS011;58360;0.000;0.000;2023-01-30T05:39:10;27.10;;;11.77;;
70761;SDS011;58360;0.000;0.000;2023-01-30T05:41:36;23.00;;;11.70;;
70761;SDS011;58360;0.000;0.000;2023-01-30T05:44:02;20.17;;;11.43;;
70761;SDS011;58360;0.000;0.000;2023-01-30T05:46:28;20.90;;;10.98;;
70761;SDS011;58360;0.000;0.000;2023-01-30T05:48:53;21.35;;;11.65;;
70761;SDS011;58360;0.000;0.000;2023-01-30T05:51:20;20.92;;;11.05;;
70761;SDS011;58360;0.000;0.000;2023-01-30T05:53:47;23.42;;;12.05;;
70761;SDS011;58360;0.000;0.000;2023-01-30T05:56:14;23.50;;;11.02;;
70761;SDS011;58360;0.000;0.000;2023-01-30T05:58:39;29.52;;;12.50;;
70761;SDS011;58360;0.000;0.000;2023-01-30T06:01:06;23.80;;;11.40;;
70761;SDS011;58360;0.000;0.000;2023-01-30T06:03:34;17.20;;;10.57;;
70761;SDS011;58360;0.000;0.000;2023-01-30T06:06:00;26.30;;;11.13;;
70761;SDS011;58360;0.000;0.000;2023-01-30T06:08:27;20.98;;;11.02;;
70761;SDS011;58360;0.000;0.000;2023-01-30T06:10:53;25.00;;;10.57;;
70761;SDS011;58360;0.000;0.000;2023-01-30T06:13:18;21.75;;;10.35;;
70761;SDS011;58360;0.000;0.000;2023-01-30T06:15:44;24.60;;;11.38;;
70761;SDS011;58360;0.000;0.000;2023-01-30T06:18:10;17.48;;;10.85;;
70761;SDS011;58360;0.000;0.000;2023-01-30T06:20:36;22.42;;;10.63;;
70761;SDS011;58360;0.000;0.000;2023-01-30T06:23:01;22.52;;;10.55;;
70761;SDS011;58360;0.000;0.000;2023-01-30T06:25:27;24.15;;;10.10;;
70761;SDS011;58360;0.000;0.000;2023-01-30T06:27:53;30.20;;;10.27;;
70761;SDS011;58360;0.000;0.000;2023-01-30T06:30:18;24.13;;;9.07;;
70761;SDS011;58360;0.000;0.000;2023-01-30T06:32:44;27.88;;;9.10;;
70761;SDS011;58360;0.000;0.000;2023-01-30T06:35:14;20.70;;;8.35;;
70761;SDS011;58360;0.000;0.000;2023-01-30T06:37:40;25.08;;;9.00;;
70761;SDS011;58360;0.000;0.000;2023-01-30T06:40:06;19.77;;;6.85;;
70761;SDS011;58360;0.000;0.000;2023-01-30T06:42:32;19.92;;;6.93;;
70761;SDS011;58360;0.000;0.000;2023-01-30T06:44:57;21.38;;;6.60;;
70761;SDS011;58360;0.000;0.000;2023-01-30T06:47:23;17.52;;;5.95;;
70761;SDS011;58360;0.000;0.000;2023-01-30T06:49:49;17.45;;;5.53;;
70761;SDS011;58360;0.000;0.000;2023-01-30T06:52:14;13.90;;;4.95;;
70761;SDS011;58360;0.000;0.000;2023-01-30T06:54:40;24.10;;;5.22;;
70761;SDS011;58360;0.000;0.000;2023-01-30T06:57:05;19.08;;;5.70;;
70761;SDS011;58360;0.000;0.000;2023-01-30T06:59:31;17.58;;;4.35;;
70761;SDS011;58360;0.000;0.000;2023-01-30T07:01:57;15.93;;;4.68;;
70761;SDS011;58360;0.000;0.000;2023-01-30T07:04:23;16.75;;;3.97;;
70761;SDS011;58360;0.000;0.000;2023-01-30T07:06:48;24.27;;;4.78;;
70761;SDS011;58360;0.000;0.000;2023-01-30T07:09:14;18.48;;;4.45;;
70761;SDS011;58360;0.000;0.000;2023-01-30T07:11:40;19.45;;;4.10;;
70761;SDS011;58360;0.000;0.000;2023-01-30T07:14:06;20.50;;;3.97;;
70761;SDS011;58360;0.000;0.000;2023-01-30T07:16:33;17.42;;;4.13;;
70761;SDS011;58360;0.000;0.000;2023-01-30T07:18:58;18.50;;;4.80;;
70761;SDS011;58360;0.000;0.000;2023-01-30T07:21:24;13.30;;;4.03;;
70761;SDS011;58360;0.000;0.000;2023-01-30T07:23:51;22.25;;;4.30;;
70761;SDS011;58360;0.000;0.000;2023-01-30T07:26:17;22.95;;;4.30;;
70761;SDS011;58360;0.000;0.000;2023-01-30T07:28:42;20.63;;;4.90;;
70761;SDS011;58360;0.000;0.000;2023-01-30T07:31:08;22.48;;;5.18;;
70761;SDS011;58360;0.000;0.000;2023-01-30T07:33:34;22.73;;;4.60;;
70761;SDS011;58360;0.000;0.000;2023-01-30T07:35:59;23.05;;;4.80;;
70761;SDS011;58360;0.000;0.000;2023-01-30T07:38:25;21.05;;;4.50;;
70761;SDS011;58360;0.000;0.000;2023-01-30T07:40:51;21.27;;;4.60;;
70761;SDS011;58360;0.000;0.000;2023-01-30T07:43:17;18.27;;;3.80;;
70761;SDS011;58360;0.000;0.000;2023-01-30T07:45:43;16.85;;;4.10;;
70761;SDS011;58360;0.000;0.000;2023-01-30T07:48:11;19.60;;;5.38;;
70761;SDS011;58360;0.000;0.000;2023-01-30T07:50:43;20.20;;;4.20;;
70761;SDS011;58360;0.000;0.000;2023-01-30T07:53:10;27.20;;;5.05;;
70761;SDS011;58360;0.000;0.000;2023-01-30T07:55:38;22.80;;;4.38;;
70761;SDS011;58360;0.000;0.000;2023-01-30T07:58:04;24.08;;;4.18;;
70761;SDS011;58360;0.000;0.000;2023-01-30T08:00:29;17.48;;;5.00;;
70761;SDS011;58360;0.000;0.000;2023-01-30T08:02:56;22.77;;;5.05;;
70761;SDS011;58360;0.000;0.000;2023-01-30T08:05:21;17.30;;;4.47;;
70761;SDS011;58360;0.000;0.000;2023-01-30T08:07:47;23.77;;;4.22;;
70761;SDS011;58360;0.000;0.000;2023-01-30T08:10:13;15.30;;;4.10;;
70761;SDS011;58360;0.000;0.000;2023-01-30T08:12:39;21.90;;;4.97;;
70761;SDS011;58360;0.000;0.000;2023-01-30T08:15:06;22.40;;;4.30;;
70761;SDS011;58360;0.000;0.000;2023-01-30T08:17:32;19.85;;;4.38;;
70761;SDS011;58360;0.000;0.000;2023-01-30T08:19:58;13.38;;;4.07;;
70761;SDS011;58360;0.000;0.000;2023-01-30T08:22:24;26.27;;;5.38;;
70761;SDS011;58360;0.000;0.000;2023-01-30T08:24:50;21.48;;;6.75;;
70761;SDS011;58360;0.000;0.000;2023-01-30T08:27:15;30.85;;;6.63;;
70761;SDS011;58360;0.000;0.000;2023-01-30T08:29:42;22.73;;;4.75;;
70761;SDS011;58360;0.000;0.000;2023-01-30T08:32:08;23.67;;;4.03;;
70761;SDS011;58360;0.000;0.000;2023-01-30T08:34:34;17.88;;;4.32;;
70761;SDS011;58360;0.000;0.000;2023-01-30T08:37:00;16.55;;;3.42;;
70761;SDS011;58360;0.000;0.000;2023-01-30T08:39:26;12.82;;;3.58;;
70761;SDS011;58360;0.000;0.000;2023-01-30T08:41:51;18.02;;;3.95;;
70761;SDS011;58360;0.000;0.000;2023-01-30T08:44:17;16.35;;;4.25;;
70761;SDS011;58360;0.000;0.000;2023-01-30T08:46:42;19.88;;;4.05;;
70761;SDS011;58360;0.000;0.000;2023-01-30T08:49:09;16.50;;;4.35;;
70761;SDS011;58360;0.000;0.000;2023-01-30T08:51:34;23.50;;;5.53;;
70761;SDS011;58360;0.000;0.000;2023-01-30T08:54:00;16.98;;;4.63;;
70761;SDS011;58360;0.000;0.000;2023-01-30T08:56:26;25.00;;;4.22;;
70761;SDS011;58360;0.000;0.000;2023-01-30T08:58:51;17.48;;;4.10;;
70761;SDS011;58360;0.000;0.000;2023-01-30T09:01:17;17.13;;;3.78;;
70761;SDS011;58360;0.000;0.000;2023-01-30T09:03:43;23.23;;;4.53;;
70761;SDS011;58360;0.000;0.000;2023-01-30T09:06:08;18.90;;;3.83;;
70761;SDS011;58360;0.000;0.000;2023-01-30T09:08:34;21.38;;;3.78;;
70761;SDS011;58360;0.000;0.000;2023-01-30T09:11:00;25.05;;;4.13;;
70761;SDS011;58360;0.000;0.000;2023-01-30T09:13:28;19.90;;;3.40;;
70761;SDS011;58360;0.000;0.000;2023-01-30T09:15:54;15.85;;;3.25;;
70761;SDS011;58360;0.000;0.000;2023-01-30T09:18:21;31.60;;;4.15;;
70761;SDS011;58360;0.000;0.000;2023-01-30T09:20:47;16.58;;;3.50;;
70761;SDS011;58360;0.000;0.000;2023-01-30T09:23:12;17.85;;;4.43;;
70761;SDS011;58360;0.000;0.000;2023-01-30T09:25:38;15.63;;;3.53;;
70761;SDS011;58360;0.000;0.000;2023-01-30T09:28:04;17.77;;;3.17;;
70761;SDS011;58360;0.000;0.000;2023-01-30T09:30:29;15.57;;;3.20;;
70761;SDS011;58360;0.000;0.000;2023-01-30T09:32:55;25.42;;;4.05;;
70761;SDS011;58360;0.000;0.000;2023-01-30T09:35:21;24.17;;;4.70;;
70761;SDS011;58360;0.000;0.000;2023-01-30T09:37:47;17.58;;;3.22;;
70761;SDS011;58360;0.000;0.000;2023-01-30T09:40:21;21.55;;;4.22;;
70761;SDS011;58360;0.000;0.000;2023-01-30T09:42:57;23.42;;;3.15;;
70761;SDS011;58360;0.000;0.000;2023-01-30T09:48:20;13.65;;;3.13;;
70761;SDS011;58360;0.000;0.000;2023-01-30T09:56:23;19.08;;;3.92;;
70761;SDS011;58360;0.000;0.000;2023-01-30T09:59:15;21.58;;;3.78;;
70761;SDS011;58360;0.000;0.000;2023-01-30T10:09:42;16.67;;;4.25;;
70761;SDS011;58360;0.000;0.000;2023-01-30T10:12:48;23.08;;;4.07;;
70761;SDS011;58360;0.000;0.000;2023-01-30T10:18:13;18.75;;;3.38;;
70761;SDS011;58360;0.000;0.000;2023-01-30T10:26:20;15.02;;;2.97;;
70761;SDS011;58360;0.000;0.000;2023-01-30T10:31:35;24.10;;;3.70;;
70761;SDS011;58360;0.000;0.000;2023-01-30T10:34:09;19.02;;;3.70;;
70761;SDS011;58360;0.000;0.000;2023-01-30T10:45:50;15.63;;;3.05;;
70761;SDS011;58360;0.000;0.000;2023-01-30T10:51:11;23.45;;;3.05;;
70761;SDS011;58360;0.000;0.000;2023-01-30T10:53:42;19.38;;;2.70;;
70761;SDS011;58360;0.000;0.000;2023-01-30T10:56:36;23.05;;;3.38;;
70761;SDS011;58360;0.000;0.000;2023-01-30T11:02:35;22.58;;;3.45;;
70761;SDS011;58360;0.000;0.000;2023-01-30T11:04:58;18.17;;;3.40;;
70761;SDS011;58360;0.000;0.000;2023-01-30T11:07:29;16.88;;;2.95;;
70761;SDS011;58360;0.000;0.000;2023-01-30T11:09:56;20.33;;;4.07;;
70761;SDS011;58360;0.000;0.000;2023-01-30T11:12:23;15.23;;;2.70;;
70761;SDS011;58360;0.000;0.000;2023-01-30T11:14:58;20.58;;;3.20;;
70761;SDS011;58360;0.000;0.000;2023-01-30T11:17:29;19.30;;;3.25;;
70761;SDS011;58360;0.000;0.000;2023-01-30T11:20:00;23.30;;;2.58;;
70761;SDS011;58360;0.000;0.000;2023-01-30T11:22:29;18.75;;;2.97;;
70761;SDS011;58360;0.000;0.000;2023-01-30T11:25:12;16.23;;;3.72;;
70761;SDS011;58360;0.000;0.000;2023-01-30T11:27:40;23.27;;;3.80;;
70761;SDS011;58360;0.000;0.000;2023-01-30T11:30:13;24.00;;;3.55;;
70761;SDS011;58360;0.000;0.000;2023-01-30T11:32:41;13.35;;;2.85;;
70761;SDS011;58360;0.000;0.000;2023-01-30T11:37:43;18.17;;;3.47;;
70761;SDS011;58360;0.000;0.000;2023-01-30T11:42:51;22.05;;;3.33;;
70761;SDS011;58360;0.000;0.000;2023-01-30T11:45:22;26.43;;;3.43;;
70761;SDS011;58360;0.000;0.000;2023-01-30T11:47:55;19.38;;;3.75;;
70761;SDS011;58360;0.000;0.000;2023-01-30T11:50:26;15.98;;;2.97;;
70761;SDS011;58360;0.000;0.000;2023-01-30T11:52:55;18.42;;;3.80;;
70761;SDS011;58360;0.000;0.000;2023-01-30T11:55:29;15.60;;;3.42;;
70761;SDS011;58360;0.000;0.000;2023-01-30T11:58:00;22.02;;;3.65;;
70761;SDS011;58360;0.000;0.000;2023-01-30T12:00:36;25.30;;;4.03;;
70761;SDS011;58360;0.000;0.000;2023-01-30T12:03:05;30.92;;;6.13;;
70761;SDS011;58360;0.000;0.000;2023-01-30T12:05:38;22.13;;;3.20;;
70761;SDS011;58360;0.000;0.000;2023-01-30T12:08:11;20.53;;;3.90;;
70761;SDS011;58360;0.000;0.000;2023-01-30T12:10:41;27.93;;;5.13;;
70761;SDS011;58360;0.000;0.000;2023-01-30T12:13:17;29.35;;;3.67;;
70761;SDS011;58360;0.000;0.000;2023-01-30T12:16:09;20.08;;;4.32;;
70761;SDS011;58360;0.000;0.000;2023-01-30T12:22:17;20.00;;;3.47;;
70761;SDS011;58360;0.000;0.000;2023-01-30T12:25:07;16.95;;;3.10;;
70761;SDS011;58360;0.000;0.000;2023-01-30T12:27:44;18.48;;;3.50;;
70761;SDS011;58360;0.000;0.000;2023-01-30T12:30:19;14.48;;;3.20;;
70761;SDS011;58360;0.000;0.000;2023-01-30T12:35:28;20.58;;;3.58;;
70761;SDS011;58360;0.000;0.000;2023-01-30T12:38:08;25.48;;;3.50;;
70761;SDS011;58360;0.000;0.000;2023-01-30T12:45:48;17.23;;;3.10;;
70761;SDS011;58360;0.000;0.000;2023-01-30T13:11:11;21.08;;;3.92;;
70761;SDS011;58360;0.000;0.000;2023-01-30T13:13:51;18.50;;;3.13;;
70761;SDS011;58360;0.000;0.000;2023-01-30T13:16:34;17.23;;;3.42;;
70761;SDS011;58360;0.000;0.000;2023-01-30T13:27:19;20.42;;;3.45;;
70761;SDS011;58360;0.000;0.000;2023-01-30T13:29:47;16.90;;;3.08;;
70761;SDS011;58360;0.000;0.000;2023-01-30T13:32:16;15.75;;;3.90;;
70761;SDS011;58360;0.000;0.000;2023-01-30T13:35:16;24.55;;;3.08;;
70761;SDS011;58360;0.000;0.000;2023-01-30T13:37:46;17.95;;;3.60;;
70761;SDS011;58360;0.000;0.000;2023-01-30T13:40:29;20.35;;;3.58;;
70761;SDS011;58360;0.000;0.000;2023-01-30T13:43:05;25.05;;;3.15;;
70761;SDS011;58360;0.000;0.000;2023-01-30T13:45:40;20.92;;;3.88;;
70761;SDS011;58360;0.000;0.000;2023-01-30T13:53:24;18.60;;;4.32;;
70761;SDS011;58360;0.000;0.000;2023-01-30T13:56:20;23.27;;;3.72;;
70761;SDS011;58360;0.000;0.000;2023-01-30T14:09:41;16.13;;;3.30;;
70761;SDS011;58360;0.000;0.000;2023-01-30T14:20:35;20.27;;;3.20;;
70761;SDS011;58360;0.000;0.000;2023-01-30T14:25:58;23.92;;;3.95;;
70761;SDS011;58360;0.000;0.000;2023-01-30T14:30:53;26.27;;;4.07;;
70761;SDS011;58360;0.000;0.000;2023-01-30T14:38:25;20.85;;;4.38;;
70761;SDS011;58360;0.000;0.000;2023-01-30T14:56:43;19.15;;;3.17;;
70761;SDS011;58360;0.000;0.000;2023-01-30T15:01:57;26.73;;;4.13;;
70761;SDS011;58360;0.000;0.000;2023-01-30T15:04:31;17.38;;;3.15;;
70761;SDS011;58360;0.000;0.000;2023-01-30T15:09:38;20.17;;;4.38;;
70761;SDS011;58360;0.000;0.000;2023-01-30T15:33:47;24.58;;;4.13;;
70761;SDS011;58360;0.000;0.000;2023-01-30T15:41:24;16.65;;;3.10;;
70761;SDS011;58360;0.000;0.000;2023-01-30T15:52:17;22.05;;;3.60;;
70761;SDS011;58360;0.000;0.000;2023-01-30T15:54:51;19.63;;;3.58;;
70761;SDS011;58360;0.000;0.000;2023-01-30T15:57:31;18.75;;;3.58;;
70761;SDS011;58360;0.000;0.000;2023-01-30T16:00:00;26.20;;;3.60;;
70761;SDS011;58360;0.000;0.000;2023-01-30T16:02:30;19.92;;;3.88;;
70761;SDS011;58360;0.000;0.000;2023-01-30T16:05:04;19.52;;;3.47;;
70761;SDS011;58360;0.000;0.000;2023-01-30T16:07:31;25.60;;;3.90;;
70761;SDS011;58360;0.000;0.000;2023-01-30T16:09:58;21.27;;;3.67;;
70761;SDS011;58360;0.000;0.000;2023-01-30T16:12:25;21.70;;;5.00;;
70761;SDS011;58360;0.000;0.000;2023-01-30T16:14:54;22.30;;;3.17;;
70761;SDS011;58360;0.000;0.000;2023-01-30T16:17:26;17.65;;;3.00;;
70761;SDS011;58360;0.000;0.000;2023-01-30T16:19:55;24.90;;;3.75;;
70761;SDS011;58360;0.000;0.000;2023-01-30T16:22:24;18.05;;;3.05;;
70761;SDS011;58360;0.000;0.000;2023-01-30T16:24:58;20.75;;;3.72;;
70761;SDS011;58360;0.000;0.000;2023-01-30T16:27:28;19.52;;;4.45;;
70761;SDS011;58360;0.000;0.000;2023-01-30T16:29:56;16.87;;;3.10;;
70761;SDS011;58360;0.000;0.000;2023-01-30T16:32:26;25.35;;;3.55;;
70761;SDS011;58360;0.000;0.000;2023-01-30T16:37:47;21.77;;;3.83;;
70761;SDS011;58360;0.000;0.000;2023-01-30T16:40:13;21.67;;;4.03;;
70761;SDS011;58360;0.000;0.000;2023-01-30T16:50:45;29.02;;;4.57;;
70761;SDS011;58360;0.000;0.000;2023-01-30T16:53:13;31.23;;;4.13;;
70761;SDS011;58360;0.000;0.000;2023-01-30T16:55:59;16.08;;;3.55;;
70761;SDS011;58360;0.000;0.000;2023-01-30T16:58:32;30.63;;;4.28;;
70761;SDS011;58360;0.000;0.000;2023-01-30T17:00:59;20.52;;;4.28;;
70761;SDS011;58360;0.000;0.000;2023-01-30T17:03:28;24.58;;;4.05;;
70761;SDS011;58360;0.000;0.000;2023-01-30T17:05:58;22.90;;;3.53;;
70761;SDS011;58360;0.000;0.000;2023-01-30T17:10:56;21.25;;;3.63;;
70761;SDS011;58360;0.000;0.000;2023-01-30T17:18:46;18.17;;;3.72;;
70761;SDS011;58360;0.000;0.000;2023-01-30T17:21:20;15.70;;;3.72;;
70761;SDS011;58360;0.000;0.000;2023-01-30T17:23:54;23.63;;;3.85;;
70761;SDS011;58360;0.000;0.000;2023-01-30T17:26:28;28.02;;;4.18;;
70761;SDS011;58360;0.000;0.000;2023-01-30T17:28:54;19.92;;;3.75;;
70761;SDS011;58360;0.000;0.000;2023-01-30T17:31:20;21.02;;;3.55;;
70761;SDS011;58360;0.000;0.000;2023-01-30T17:33:46;18.50;;;3.55;;
70761;SDS011;58360;0.000;0.000;2023-01-30T17:36:19;17.58;;;3.47;;
70761;SDS011;58360;0.000;0.000;2023-01-30T17:38:49;18.95;;;3.72;;
70761;SDS011;58360;0.000;0.000;2023-01-30T17:41:19;29.95;;;5.15;;
70761;SDS011;58360;0.000;0.000;2023-01-30T17:43:47;29.80;;;5.22;;
70761;SDS011;58360;0.000;0.000;2023-01-30T17:46:13;19.85;;;3.80;;
70761;SDS011;58360;0.000;0.000;2023-01-30T17:48:40;28.30;;;4.78;;
70761;SDS011;58360;0.000;0.000;2023-01-30T17:51:06;24.80;;;4.05;;
70761;SDS011;58360;0.000;0.000;2023-01-30T17:53:32;22.98;;;4.53;;
70761;SDS011;58360;0.000;0.000;2023-01-30T17:55:58;34.95;;;5.25;;
70761;SDS011;58360;0.000;0.000;2023-01-30T17:58:24;29.58;;;4.15;;
70761;SDS011;58360;0.000;0.000;2023-01-30T18:00:50;22.45;;;4.43;;
70761;SDS011;58360;0.000;0.000;2023-01-30T18:03:17;26.20;;;6.00;;
70761;SDS011;58360;0.000;0.000;2023-01-30T18:05:43;30.33;;;5.97;;
70761;SDS011;58360;0.000;0.000;2023-01-30T18:08:08;35.42;;;5.22;;
70761;SDS011;58360;0.000;0.000;2023-01-30T18:10:34;28.95;;;4.28;;
70761;SDS011;58360;0.000;0.000;2023-01-30T18:13:00;23.02;;;4.40;;
70761;SDS011;58360;0.000;0.000;2023-01-30T18:15:26;29.33;;;4.80;;
70761;SDS011;58360;0.000;0.000;2023-01-30T18:17:51;27.48;;;5.25;;
70761;SDS011;58360;0.000;0.000;2023-01-30T18:20:20;30.60;;;5.43;;
70761;SDS011;58360;0.000;0.000;2023-01-30T18:22:47;28.20;;;8.02;;
70761;SDS011;58360;0.000;0.000;2023-01-30T18:25:13;21.95;;;4.07;;
70761;SDS011;58360;0.000;0.000;2023-01-30T18:27:43;24.27;;;6.65;;
70761;SDS011;58360;0.000;0.000;2023-01-30T18:30:11;29.00;;;6.13;;
70761;SDS011;58360;0.000;0.000;2023-01-30T18:32:38;18.42;;;3.80;;
70761;SDS011;58360;0.000;0.000;2023-01-30T18:35:04;23.13;;;5.47;;
70761;SDS011;58360;0.000;0.000;2023-01-30T18:37:30;20.20;;;4.22;;
70761;SDS011;58360;0.000;0.000;2023-01-30T18:39:56;19.95;;;6.07;;
70761;SDS011;58360;0.000;0.000;2023-01-30T18:42:21;27.70;;;6.38;;
70761;SDS011;58360;0.000;0.000;2023-01-30T18:44:47;27.63;;;6.15;;
70761;SDS011;58360;0.000;0.000;2023-01-30T18:47:13;22.73;;;4.75;;
70761;SDS011;58360;0.000;0.000;2023-01-30T18:49:38;30.50;;;5.47;;
70761;SDS011;58360;0.000;0.000;2023-01-30T18:52:04;18.95;;;5.35;;